createdAt,value
2023-02-16T00:00:06.228Z,42.30
2023-02-16T00:01:21.625Z,42.31
2023-02-16T00:02:24.261Z,42.33
2023-02-16T00:03:26.912Z,42.31
2023-02-16T00:04:31.023Z,42.30
2023-02-16T00:05:34.462Z,42.30
2023-02-16T00:06:37.740Z,42.29
2023-02-16T00:07:40.222Z,42.27
2023-02-16T00:08:48.157Z,42.31
2023-02-16T00:09:50.661Z,42.31
2023-02-16T00:11:14.266Z,42.25
2023-02-16T00:12:37.368Z,42.29
2023-02-16T00:15:00.967Z,42.24
2023-02-16T00:16:09.433Z,42.32
2023-02-16T00:17:11.903Z,42.42
2023-02-16T00:19:35.103Z,42.38
2023-02-16T00:20:38.233Z,42.35
2023-02-16T00:21:40.904Z,42.37
2023-02-16T00:22:43.919Z,42.35
2023-02-16T00:23:49.302Z,42.42
2023-02-16T00:24:51.938Z,42.38
2023-02-16T00:25:55.552Z,42.35
2023-02-16T00:26:58.434Z,42.35
2023-02-16T00:28:02.662Z,42.38
2023-02-16T00:29:19.773Z,42.43
2023-02-16T00:30:25.948Z,42.51
2023-02-16T00:31:32.323Z,42.47
2023-02-16T00:32:34.884Z,42.41
2023-02-16T00:33:39.579Z,42.35
2023-02-16T00:34:42.280Z,42.38
2023-02-16T00:35:44.806Z,42.41
2023-02-16T00:36:47.401Z,42.42
2023-02-16T00:37:49.617Z,42.41
2023-02-16T00:38:53.218Z,42.44
2023-02-16T00:39:55.593Z,42.44
2023-02-16T00:40:58.387Z,42.42
2023-02-16T00:43:27.427Z,42.34
2023-02-16T00:44:36.247Z,42.41
2023-02-16T00:45:38.820Z,42.35
2023-02-16T00:46:43.133Z,42.37
2023-02-16T00:47:47.767Z,42.34
2023-02-16T00:48:52.766Z,42.33
2023-02-16T00:49:55.268Z,42.30
2023-02-16T00:50:58.509Z,42.34
2023-02-16T00:52:01.004Z,42.34
2023-02-16T00:53:03.433Z,42.42
2023-02-16T00:54:06.564Z,42.38
2023-02-16T00:55:14.837Z,42.38
2023-02-16T00:56:18.893Z,42.35
2023-02-16T00:57:21.242Z,42.31
2023-02-16T00:58:34.144Z,42.27
2023-02-16T00:59:36.745Z,42.26
2023-02-16T01:00:44.462Z,42.39
2023-02-16T01:01:48.933Z,42.39
2023-02-16T01:02:53.160Z,42.25
2023-02-16T01:03:55.518Z,42.29
2023-02-16T01:05:00.662Z,42.27
2023-02-16T01:06:22.499Z,42.27
2023-02-16T01:07:45.492Z,42.25
2023-02-16T01:09:06.817Z,42.25
2023-02-16T01:10:29.712Z,42.21
2023-02-16T01:11:32.320Z,42.24
2023-02-16T01:12:34.673Z,42.27
2023-02-16T01:15:08.374Z,42.27
2023-02-16T01:16:17.208Z,42.33
2023-02-16T01:17:19.638Z,42.34
2023-02-16T01:18:22.882Z,42.34
2023-02-16T01:19:27.050Z,42.39
2023-02-16T01:20:29.477Z,42.46
2023-02-16T01:21:32.563Z,42.49
2023-02-16T01:22:36.975Z,42.51
2023-02-16T01:23:41.282Z,42.56
2023-02-16T01:24:45.148Z,42.56
2023-02-16T01:25:48.906Z,42.60
2023-02-16T01:26:52.912Z,42.58
2023-02-16T01:27:55.210Z,42.62
2023-02-16T01:28:57.841Z,42.62
2023-02-16T01:30:00.756Z,42.60
2023-02-16T01:31:03.945Z,42.61
2023-02-16T01:32:07.335Z,42.56
2023-02-16T01:33:11.707Z,42.60
2023-02-16T01:34:14.513Z,42.56
2023-02-16T01:35:20.450Z,42.58
2023-02-16T01:36:25.880Z,42.56
2023-02-16T01:37:28.272Z,42.54
2023-02-16T01:38:30.776Z,42.53
2023-02-16T01:39:35.015Z,42.55
2023-02-16T01:40:42.389Z,42.55
2023-02-16T01:41:57.261Z,42.58
2023-02-16T01:43:08.440Z,42.57
2023-02-16T01:44:14.413Z,42.55
2023-02-16T01:45:19.240Z,42.54
2023-02-16T01:46:31.431Z,42.55
2023-02-16T01:47:54.464Z,42.59
2023-02-16T01:48:57.399Z,42.56
2023-02-16T01:50:03.596Z,42.55
2023-02-16T01:51:13.165Z,42.54
2023-02-16T01:53:51.213Z,42.55
2023-02-16T01:55:17.298Z,42.55
2023-02-16T01:58:21.655Z,42.45
2023-02-16T01:59:45.582Z,42.49
2023-02-16T02:00:55.589Z,42.46
2023-02-16T02:01:58.977Z,42.46
2023-02-16T02:04:44.215Z,42.54
2023-02-16T02:05:48.070Z,42.66
2023-02-16T02:06:51.596Z,42.79
2023-02-16T02:07:58.869Z,42.79
2023-02-16T02:09:08.169Z,42.84
2023-02-16T02:11:34.951Z,42.82
2023-02-16T02:14:09.652Z,43.04
2023-02-16T02:15:12.688Z,43.08
2023-02-16T02:16:17.961Z,43.17
2023-02-16T02:17:23.371Z,43.17
2023-02-16T02:18:25.849Z,43.08
2023-02-16T02:19:30.043Z,43.05
2023-02-16T02:21:29.537Z,43.00
2023-02-16T02:23:25.120Z,42.99
2023-02-16T02:26:39.677Z,42.75
2023-02-16T02:29:24.975Z,42.82
2023-02-16T02:30:44.183Z,42.80
2023-02-16T02:32:11.767Z,42.84
2023-02-16T02:35:09.636Z,42.83
2023-02-16T02:36:16.250Z,42.85
2023-02-16T02:37:37.995Z,42.86
2023-02-16T02:39:02.334Z,42.86
2023-02-16T02:40:29.317Z,42.84
2023-02-16T02:42:03.306Z,42.85
2023-02-16T02:43:29.293Z,42.84
2023-02-16T02:44:41.468Z,42.83
2023-02-16T02:45:47.580Z,42.83
2023-02-16T02:46:50.728Z,42.85
2023-02-16T02:47:55.194Z,42.83
2023-02-16T02:48:59.683Z,42.86
2023-02-16T02:50:02.133Z,42.85
2023-02-16T02:51:30.348Z,42.87
2023-02-16T02:52:35.327Z,42.85
2023-02-16T02:53:42.117Z,42.86
2023-02-16T02:55:03.861Z,42.95
2023-02-16T02:56:26.131Z,43.15
2023-02-16T02:57:56.870Z,43.07
2023-02-16T02:59:20.859Z,43.17
2023-02-16T03:00:43.473Z,43.25
2023-02-16T03:01:49.613Z,43.30
2023-02-16T03:02:54.984Z,43.40
2023-02-16T03:03:57.464Z,43.43
2023-02-16T03:04:59.882Z,43.53
2023-02-16T03:06:13.381Z,43.56
2023-02-16T03:07:15.884Z,43.55
2023-02-16T03:08:21.260Z,43.52
2023-02-16T03:09:24.603Z,43.58
2023-02-16T03:10:45.829Z,43.43
2023-02-16T03:12:07.607Z,43.43
2023-02-16T03:14:51.645Z,43.45
2023-02-16T03:15:55.373Z,43.52
2023-02-16T03:17:17.847Z,43.59
2023-02-16T03:18:38.704Z,43.72
2023-02-16T03:20:00.332Z,43.62
2023-02-16T03:21:22.746Z,43.62
2023-02-16T03:22:43.539Z,43.53
2023-02-16T03:24:06.132Z,43.54
2023-02-16T03:25:28.009Z,43.53
2023-02-16T03:26:49.168Z,43.51
2023-02-16T03:28:10.183Z,43.53
2023-02-16T03:30:29.825Z,43.57
2023-02-16T03:31:34.802Z,43.63
2023-02-16T03:32:38.012Z,43.65
2023-02-16T03:33:40.474Z,43.60
2023-02-16T03:34:43.130Z,43.66
2023-02-16T03:35:45.561Z,43.64
2023-02-16T03:36:49.867Z,43.59
2023-02-16T03:37:53.267Z,43.59
2023-02-16T03:38:55.636Z,43.53
2023-02-16T03:40:16.345Z,43.52
2023-02-16T03:41:19.338Z,43.49
2023-02-16T03:42:22.102Z,43.48
2023-02-16T03:43:25.758Z,43.44
2023-02-16T03:44:28.618Z,43.47
2023-02-16T03:45:32.458Z,43.48
2023-02-16T03:46:35.353Z,43.51
2023-02-16T03:47:38.172Z,43.54
2023-02-16T03:48:40.825Z,43.51
2023-02-16T03:49:43.440Z,43.54
2023-02-16T03:50:46.138Z,43.58
2023-02-16T03:51:49.102Z,43.49
2023-02-16T03:52:51.595Z,43.52
2023-02-16T03:53:54.876Z,43.52
2023-02-16T03:54:57.220Z,43.53
2023-02-16T03:55:59.587Z,43.50
2023-02-16T03:57:02.981Z,43.42
2023-02-16T03:58:06.379Z,43.30
2023-02-16T03:59:08.955Z,43.30
2023-02-16T04:00:12.491Z,43.41
2023-02-16T04:01:19.101Z,43.36
2023-02-16T04:02:21.852Z,43.42
2023-02-16T04:03:25.184Z,43.35
2023-02-16T04:04:28.712Z,43.39
2023-02-16T04:05:31.442Z,43.33
2023-02-16T04:06:33.836Z,43.30
2023-02-16T04:07:36.597Z,43.34
2023-02-16T04:08:41.713Z,43.46
2023-02-16T04:09:44.097Z,43.35
2023-02-16T04:10:46.517Z,43.41
2023-02-16T04:12:07.787Z,43.32
2023-02-16T04:13:10.155Z,43.37
2023-02-16T04:14:13.636Z,43.29
2023-02-16T04:16:34.591Z,43.34
2023-02-16T04:17:37.017Z,43.35
2023-02-16T04:18:39.977Z,43.36
2023-02-16T04:19:42.391Z,43.28
2023-02-16T04:20:45.211Z,43.36
2023-02-16T04:21:47.541Z,43.25
2023-02-16T04:22:50.130Z,43.27
2023-02-16T04:23:52.723Z,43.31
2023-02-16T04:24:55.086Z,43.28
2023-02-16T04:25:57.957Z,43.33
2023-02-16T04:27:00.506Z,43.28
2023-02-16T04:28:03.162Z,43.19
2023-02-16T04:29:05.666Z,43.27
2023-02-16T04:30:12.478Z,43.31
2023-02-16T04:31:15.519Z,43.31
2023-02-16T04:32:17.931Z,43.23
2023-02-16T04:33:20.230Z,43.23
2023-02-16T04:34:22.875Z,43.35
2023-02-16T04:35:25.745Z,43.26
2023-02-16T04:36:29.346Z,43.25
2023-02-16T04:37:32.163Z,43.23
2023-02-16T04:38:34.648Z,43.21
2023-02-16T04:39:36.843Z,43.27
2023-02-16T04:40:40.143Z,43.31
2023-02-16T04:41:43.172Z,43.28
2023-02-16T04:42:45.531Z,43.26
2023-02-16T04:43:47.874Z,43.25
2023-02-16T04:44:50.352Z,43.32
2023-02-16T04:45:53.228Z,43.21
2023-02-16T04:46:55.826Z,43.25
2023-02-16T04:47:58.242Z,43.19
2023-02-16T04:49:03.026Z,43.17
2023-02-16T04:50:07.039Z,43.19
2023-02-16T04:51:09.513Z,43.24
2023-02-16T04:52:12.822Z,43.26
2023-02-16T04:53:15.082Z,43.24
2023-02-16T04:54:18.268Z,43.19
2023-02-16T04:55:20.643Z,43.21
2023-02-16T04:56:23.179Z,43.15
2023-02-16T04:57:25.565Z,43.23
2023-02-16T04:58:28.236Z,43.20
2023-02-16T04:59:30.528Z,43.13
2023-02-16T05:00:35.118Z,43.16
2023-02-16T05:01:37.694Z,43.17
2023-02-16T05:02:40.795Z,43.19
2023-02-16T05:03:43.072Z,43.17
2023-02-16T05:04:45.643Z,43.20
2023-02-16T05:05:48.163Z,43.22
2023-02-16T05:06:50.692Z,43.16
2023-02-16T05:07:53.654Z,43.17
2023-02-16T05:08:56.003Z,43.16
2023-02-16T05:09:58.493Z,43.17
2023-02-16T05:11:19.339Z,43.19
2023-02-16T05:12:40.361Z,43.17
2023-02-16T05:15:16.130Z,43.37
2023-02-16T05:16:22.929Z,43.43
2023-02-16T05:17:26.036Z,43.51
2023-02-16T05:18:28.874Z,43.62
2023-02-16T05:19:31.611Z,43.59
2023-02-16T05:20:53.273Z,43.70
2023-02-16T05:21:56.349Z,43.76
2023-02-16T05:23:01.386Z,43.75
2023-02-16T05:24:08.889Z,43.63
2023-02-16T05:25:11.565Z,43.73
2023-02-16T05:26:14.895Z,43.70
2023-02-16T05:27:19.212Z,43.68
2023-02-16T05:28:21.609Z,43.68
2023-02-16T05:29:24.311Z,43.61
2023-02-16T05:30:27.029Z,43.46
2023-02-16T05:31:29.987Z,43.41
2023-02-16T05:32:32.580Z,43.38
2023-02-16T05:33:35.360Z,43.33
2023-02-16T05:34:38.301Z,43.23
2023-02-16T05:35:40.477Z,43.14
2023-02-16T05:36:43.236Z,43.11
2023-02-16T05:37:46.027Z,43.02
2023-02-16T05:38:49.533Z,42.91
2023-02-16T05:39:52.598Z,42.97
2023-02-16T05:40:55.214Z,42.79
2023-02-16T05:41:57.891Z,42.67
2023-02-16T05:43:01.120Z,42.66
2023-02-16T05:44:03.992Z,42.44
2023-02-16T05:45:07.230Z,42.34
2023-02-16T05:46:09.848Z,42.23
2023-02-16T05:47:12.388Z,42.22
2023-02-16T05:48:14.889Z,42.31
2023-02-16T05:49:18.379Z,42.23
2023-02-16T05:50:22.168Z,42.21
2023-02-16T05:51:25.040Z,42.02
2023-02-16T05:52:28.224Z,42.05
2023-02-16T05:53:32.300Z,41.94
2023-02-16T05:54:34.970Z,41.89
2023-02-16T05:55:37.271Z,41.85
2023-02-16T05:56:40.544Z,41.86
2023-02-16T05:57:45.469Z,41.96
2023-02-16T05:58:48.153Z,41.80
2023-02-16T05:59:50.994Z,41.76
2023-02-16T06:00:53.889Z,41.71
2023-02-16T06:01:56.310Z,41.69
2023-02-16T06:02:59.647Z,41.68
2023-02-16T06:04:03.210Z,41.62
2023-02-16T06:05:07.304Z,41.51
2023-02-16T06:06:11.960Z,41.41
2023-02-16T06:07:15.188Z,41.44
2023-02-16T06:08:17.699Z,41.36
2023-02-16T06:09:20.391Z,41.24
2023-02-16T06:10:25.406Z,41.24
2023-02-16T06:11:37.558Z,41.11
2023-02-16T06:12:40.073Z,41.07
2023-02-16T06:13:42.536Z,40.93
2023-02-16T06:14:44.852Z,40.89
2023-02-16T06:15:47.691Z,40.86
2023-02-16T06:16:56.236Z,40.67
2023-02-16T06:17:59.410Z,40.72
2023-02-16T06:19:02.282Z,40.70
2023-02-16T06:20:06.460Z,40.61
2023-02-16T06:21:09.563Z,40.65
2023-02-16T06:22:12.163Z,40.71
2023-02-16T06:23:15.262Z,40.76
2023-02-16T06:24:18.942Z,40.79
2023-02-16T06:25:21.465Z,40.89
2023-02-16T06:26:24.397Z,40.93
2023-02-16T06:27:28.755Z,40.96
2023-02-16T06:28:32.097Z,41.06
2023-02-16T06:29:35.590Z,41.13
2023-02-16T06:30:38.531Z,41.18
2023-02-16T06:31:41.259Z,41.23
2023-02-16T06:32:43.969Z,41.36
2023-02-16T06:33:47.275Z,41.42
2023-02-16T06:34:49.794Z,41.44
2023-02-16T06:35:53.325Z,41.47
2023-02-16T06:36:55.953Z,41.48
2023-02-16T06:37:59.298Z,41.47
2023-02-16T06:39:01.723Z,41.46
2023-02-16T06:40:06.519Z,41.44
2023-02-16T06:41:08.924Z,41.56
2023-02-16T06:42:12.467Z,41.56
2023-02-16T06:43:14.931Z,41.62
2023-02-16T06:44:17.752Z,41.57
2023-02-16T06:45:22.046Z,41.63
2023-02-16T06:46:25.460Z,41.61
2023-02-16T06:47:27.971Z,41.65
2023-02-16T06:48:31.294Z,41.71
2023-02-16T06:49:34.721Z,41.68
2023-02-16T06:50:38.573Z,41.65
2023-02-16T06:51:41.031Z,41.69
2023-02-16T06:52:43.764Z,41.64
2023-02-16T06:53:47.475Z,41.66
2023-02-16T06:54:50.282Z,41.67
2023-02-16T06:55:52.957Z,41.68
2023-02-16T06:56:56.583Z,41.74
2023-02-16T06:57:59.435Z,41.73
2023-02-16T06:59:02.248Z,41.74
2023-02-16T07:00:08.046Z,41.78
2023-02-16T07:01:11.532Z,41.79
2023-02-16T07:02:15.056Z,41.86
2023-02-16T07:03:18.712Z,41.97
2023-02-16T07:04:22.768Z,41.96
2023-02-16T07:05:25.441Z,41.98
2023-02-16T07:06:28.570Z,41.90
2023-02-16T07:07:32.208Z,41.88
2023-02-16T07:08:35.684Z,41.94
2023-02-16T07:09:38.358Z,42.02
2023-02-16T07:10:50.005Z,42.07
2023-02-16T07:11:51.286Z,42.17
2023-02-16T07:12:54.098Z,42.28
2023-02-16T07:13:57.866Z,42.26
2023-02-16T07:15:00.421Z,42.30
2023-02-16T07:16:04.956Z,42.35
2023-02-16T07:17:07.419Z,42.35
2023-02-16T07:18:10.347Z,42.40
2023-02-16T07:19:13.162Z,42.40
2023-02-16T07:20:18.991Z,42.35
2023-02-16T07:21:21.787Z,42.45
2023-02-16T07:22:24.147Z,42.42
2023-02-16T07:23:28.034Z,42.46
2023-02-16T07:24:30.392Z,42.53
2023-02-16T07:25:35.934Z,42.55
2023-02-16T07:26:38.927Z,42.64
2023-02-16T07:27:41.380Z,42.71
2023-02-16T07:28:44.514Z,42.64
2023-02-16T07:29:47.137Z,42.61
2023-02-16T07:30:50.518Z,42.65
2023-02-16T07:31:54.107Z,42.62
2023-02-16T07:32:57.253Z,42.67
2023-02-16T07:33:59.761Z,42.68
2023-02-16T07:35:02.204Z,42.68
2023-02-16T07:36:07.091Z,42.73
2023-02-16T07:37:09.519Z,42.78
2023-02-16T07:38:13.300Z,42.81
2023-02-16T07:39:16.040Z,42.94
2023-02-16T07:40:20.415Z,42.82
2023-02-16T07:41:23.100Z,42.84
2023-02-16T07:42:31.043Z,42.91
2023-02-16T07:43:34.332Z,42.92
2023-02-16T07:44:36.806Z,40.83
2023-02-16T07:45:39.812Z,39.88
2023-02-16T07:46:42.438Z,38.40
2023-02-16T07:47:44.868Z,38.04
2023-02-16T07:48:48.992Z,38.73
2023-02-16T07:49:51.584Z,37.95
2023-02-16T07:50:55.099Z,37.41
2023-02-16T07:51:59.785Z,37.65
2023-02-16T07:53:02.808Z,37.65
2023-02-16T07:54:05.713Z,37.17
2023-02-16T07:55:09.760Z,38.66
2023-02-16T07:56:30.647Z,37.04
2023-02-16T07:57:33.660Z,36.54
2023-02-16T07:58:37.220Z,38.06
2023-02-16T07:59:40.033Z,37.06
2023-02-16T08:00:43.195Z,36.52
2023-02-16T08:01:46.385Z,36.86
2023-02-16T08:02:49.444Z,37.21
2023-02-16T08:03:53.159Z,37.76
2023-02-16T08:04:57.198Z,36.55
2023-02-16T08:06:00.954Z,36.59
2023-02-16T08:07:03.630Z,36.36
2023-02-16T08:08:06.532Z,36.35
2023-02-16T08:09:09.934Z,37.38
2023-02-16T08:10:13.009Z,38.02
2023-02-16T08:11:19.086Z,37.34
2023-02-16T08:12:21.791Z,38.30
2023-02-16T08:13:24.406Z,37.47
2023-02-16T08:14:27.890Z,37.47
2023-02-16T08:15:31.086Z,37.66
2023-02-16T08:16:34.770Z,37.06
2023-02-16T08:18:52.880Z,37.95
2023-02-16T08:19:55.796Z,38.04
2023-02-16T08:21:04.505Z,37.97
2023-02-16T08:22:05.312Z,38.33
2023-02-16T08:23:09.794Z,37.54
2023-02-16T08:24:12.849Z,37.70
2023-02-16T08:25:17.777Z,38.56
2023-02-16T08:26:23.417Z,37.98
2023-02-16T08:27:27.318Z,37.40
2023-02-16T08:28:29.802Z,37.85
2023-02-16T08:29:32.909Z,36.90
2023-02-16T08:30:37.547Z,38.00
2023-02-16T08:31:41.116Z,38.15
2023-02-16T08:32:45.301Z,37.69
2023-02-16T08:33:49.074Z,38.12
2023-02-16T08:34:52.024Z,37.63
2023-02-16T08:35:54.401Z,37.82
2023-02-16T08:36:57.068Z,38.02
2023-02-16T08:38:00.518Z,37.99
2023-02-16T08:39:06.006Z,38.21
2023-02-16T08:40:09.666Z,37.25
2023-02-16T08:41:12.656Z,38.04
2023-02-16T08:43:30.488Z,37.50
2023-02-16T08:44:33.933Z,37.97
2023-02-16T08:45:37.407Z,38.40
2023-02-16T08:46:41.143Z,37.50
2023-02-16T08:47:44.123Z,36.35
2023-02-16T08:48:46.862Z,35.99
2023-02-16T08:49:50.521Z,36.15
2023-02-16T08:50:53.225Z,35.92
2023-02-16T08:51:58.351Z,37.24
2023-02-16T08:53:06.279Z,38.09
2023-02-16T08:54:12.961Z,38.42
2023-02-16T08:55:20.803Z,38.67
2023-02-16T08:56:26.262Z,38.90
2023-02-16T08:57:29.748Z,39.13
2023-02-16T08:58:32.844Z,39.34
2023-02-16T08:59:35.130Z,39.46
2023-02-16T09:00:38.337Z,39.65
2023-02-16T09:01:41.444Z,39.70
2023-02-16T09:02:44.124Z,39.70
2023-02-16T09:03:48.440Z,39.94
2023-02-16T09:04:51.272Z,40.00
2023-02-16T09:05:54.397Z,40.04
2023-02-16T09:06:57.822Z,40.05
2023-02-16T09:08:00.328Z,40.06
2023-02-16T09:09:04.487Z,40.10
2023-02-16T09:10:07.809Z,40.06
2023-02-16T09:11:15.368Z,40.09
2023-02-16T09:12:17.822Z,40.07
2023-02-16T09:13:20.760Z,40.08
2023-02-16T09:14:23.443Z,40.10
2023-02-16T09:15:27.519Z,40.12
2023-02-16T09:16:33.312Z,40.13
2023-02-16T09:17:36.850Z,40.15
2023-02-16T09:18:39.707Z,40.21
2023-02-16T09:19:43.960Z,40.66
2023-02-16T09:20:47.200Z,41.05
2023-02-16T09:21:55.578Z,41.93
2023-02-16T09:22:58.874Z,42.18
2023-02-16T09:24:02.916Z,42.54
2023-02-16T09:25:08.570Z,43.03
2023-02-16T09:26:12.044Z,43.41
2023-02-16T09:27:14.839Z,43.78
2023-02-16T09:28:17.768Z,43.32
2023-02-16T09:29:20.677Z,43.18
2023-02-16T09:30:24.252Z,43.23
2023-02-16T09:31:28.970Z,43.10
2023-02-16T09:32:31.992Z,43.08
2023-02-16T09:33:35.026Z,43.00
2023-02-16T09:34:38.068Z,42.95
2023-02-16T09:35:41.481Z,42.89
2023-02-16T09:36:44.109Z,43.21
2023-02-16T09:37:49.248Z,43.21
2023-02-16T09:38:53.593Z,43.42
2023-02-16T09:39:56.964Z,43.66
2023-02-16T09:41:08.932Z,43.75
2023-02-16T09:42:21.648Z,43.72
2023-02-16T09:43:37.793Z,43.94
2023-02-16T09:45:03.670Z,44.11
2023-02-16T09:46:09.582Z,44.17
2023-02-16T09:48:42.101Z,44.20
2023-02-16T09:49:44.639Z,44.42
2023-02-16T09:50:54.387Z,44.54
2023-02-16T09:51:57.097Z,44.75
2023-02-16T09:53:13.683Z,44.60
2023-02-16T09:54:40.688Z,44.74
2023-02-16T09:55:47.308Z,44.80
2023-02-16T09:56:56.268Z,44.81
2023-02-16T09:59:41.472Z,44.84
2023-02-16T10:01:03.192Z,44.83
2023-02-16T10:02:26.160Z,44.87
2023-02-16T10:03:41.921Z,44.95
2023-02-16T10:04:57.653Z,44.99
2023-02-16T10:06:15.607Z,45.10
2023-02-16T10:07:24.910Z,45.07
2023-02-16T10:09:45.330Z,45.23
2023-02-16T10:11:03.883Z,45.23
2023-02-16T10:12:09.331Z,45.39
2023-02-16T10:13:17.983Z,45.34
2023-02-16T10:14:34.189Z,45.34
2023-02-16T10:15:38.119Z,45.32
2023-02-16T10:16:42.449Z,45.20
2023-02-16T10:18:59.662Z,45.29
2023-02-16T10:20:06.187Z,45.31
2023-02-16T10:21:16.017Z,45.29
2023-02-16T10:22:35.672Z,45.27
2023-02-16T10:23:57.337Z,45.22
2023-02-16T10:25:21.760Z,45.24
2023-02-16T10:27:21.521Z,45.16
2023-02-16T10:28:57.773Z,45.08
2023-02-16T10:30:00.505Z,45.05
2023-02-16T10:32:28.275Z,45.25
2023-02-16T10:33:46.523Z,45.28
2023-02-16T10:34:51.369Z,45.27
2023-02-16T10:35:58.093Z,45.27
2023-02-16T10:37:08.996Z,45.26
2023-02-16T10:38:15.193Z,45.23
2023-02-16T10:39:24.248Z,45.22
2023-02-16T10:41:48.537Z,45.19
2023-02-16T10:43:23.860Z,45.20
2023-02-16T10:44:29.999Z,45.17
2023-02-16T10:45:55.972Z,45.28
2023-02-16T10:47:03.846Z,45.31
2023-02-16T10:49:02.804Z,45.30
2023-02-16T10:50:29.337Z,45.31
2023-02-16T10:51:34.341Z,45.21
2023-02-16T10:52:38.287Z,45.25
2023-02-16T10:53:46.394Z,45.26
2023-02-16T10:54:48.879Z,45.23
2023-02-16T10:55:51.316Z,45.16
2023-02-16T10:57:01.751Z,45.16
2023-02-16T10:58:07.621Z,45.05
2023-02-16T10:59:22.154Z,45.01
2023-02-16T11:00:29.253Z,44.98
2023-02-16T11:01:37.656Z,44.90
2023-02-16T11:02:46.069Z,44.84
2023-02-16T11:03:51.022Z,44.78
2023-02-16T11:04:55.384Z,44.78
2023-02-16T11:05:58.810Z,44.77
2023-02-16T11:07:03.526Z,44.72
2023-02-16T11:08:07.141Z,44.69
2023-02-16T11:09:10.620Z,44.58
2023-02-16T11:10:36.849Z,44.50
2023-02-16T11:11:41.320Z,44.44
2023-02-16T11:12:43.983Z,44.35
2023-02-16T11:13:48.343Z,44.37
2023-02-16T11:16:22.532Z,44.44
2023-02-16T11:17:25.519Z,44.50
2023-02-16T11:18:34.497Z,44.56
2023-02-16T11:19:37.000Z,44.51
2023-02-16T11:20:47.116Z,44.57
2023-02-16T11:21:52.643Z,44.61
2023-02-16T11:24:26.601Z,44.68
2023-02-16T11:25:28.968Z,44.74
2023-02-16T11:26:32.405Z,44.75
2023-02-16T11:27:37.345Z,44.73
2023-02-16T11:28:45.434Z,44.70
2023-02-16T11:29:50.678Z,44.70
2023-02-16T11:30:59.846Z,44.72
2023-02-16T11:32:10.480Z,44.69
2023-02-16T11:33:22.329Z,44.67
2023-02-16T11:34:32.043Z,44.71
2023-02-16T11:35:38.283Z,44.68
2023-02-16T11:36:48.080Z,44.67
2023-02-16T11:37:51.656Z,44.68
2023-02-16T11:39:06.780Z,44.70
2023-02-16T11:41:35.159Z,44.83
2023-02-16T11:42:45.231Z,44.91
2023-02-16T11:43:47.750Z,44.97
2023-02-16T11:44:54.640Z,44.99
2023-02-16T11:47:24.551Z,44.98
2023-02-16T11:48:28.892Z,45.02
2023-02-16T11:49:37.134Z,45.00
2023-02-16T11:50:42.642Z,45.00
2023-02-16T11:51:46.526Z,44.99
2023-02-16T11:52:51.019Z,44.99
2023-02-16T11:54:00.107Z,44.99
2023-02-16T11:55:03.321Z,44.96
2023-02-16T11:56:23.393Z,44.94
2023-02-16T11:57:29.115Z,44.90
2023-02-16T11:58:31.799Z,44.92
2023-02-16T11:59:38.324Z,44.96
2023-02-16T12:00:44.170Z,44.97
2023-02-16T12:02:12.031Z,45.10
2023-02-16T12:03:31.533Z,45.29
2023-02-16T12:06:07.402Z,45.54
2023-02-16T12:07:17.013Z,45.62
2023-02-16T12:10:26.829Z,45.67
2023-02-16T12:11:55.424Z,45.69
2023-02-16T12:13:07.345Z,45.61
2023-02-16T12:14:47.661Z,45.62
2023-02-16T12:16:02.549Z,45.67
2023-02-16T12:17:44.242Z,45.60
2023-02-16T12:19:09.333Z,45.55
2023-02-16T12:20:16.817Z,44.87
2023-02-16T12:21:48.835Z,44.30
2023-02-16T12:22:59.200Z,44.11
2023-02-16T12:25:39.138Z,43.64
2023-02-16T12:28:23.298Z,43.70
2023-02-16T12:29:39.349Z,43.73
2023-02-16T12:31:00.441Z,43.77
2023-02-16T12:32:22.304Z,43.71
2023-02-16T12:33:53.853Z,43.69
2023-02-16T12:35:18.065Z,43.54
2023-02-16T12:38:15.896Z,43.46
2023-02-16T12:39:25.545Z,43.56
2023-02-16T12:40:33.436Z,43.68
2023-02-16T12:42:04.973Z,43.70
2023-02-16T12:43:27.977Z,43.66
2023-02-16T12:44:46.389Z,43.77
2023-02-16T12:45:49.166Z,43.84
2023-02-16T12:46:56.369Z,43.91
2023-02-16T12:48:09.582Z,44.06
2023-02-16T12:51:33.685Z,44.20
2023-02-16T12:53:07.511Z,44.22
2023-02-16T12:55:55.470Z,44.14
2023-02-16T12:57:08.155Z,44.13
2023-02-16T12:58:19.581Z,43.96
2023-02-16T13:00:48.962Z,43.55
2023-02-16T13:01:52.737Z,43.33
2023-02-16T13:03:00.629Z,43.07
2023-02-16T13:04:09.336Z,42.81
2023-02-16T13:05:18.190Z,42.56
2023-02-16T13:06:34.555Z,42.40
2023-02-16T13:09:34.175Z,42.02
2023-02-16T13:10:40.153Z,41.64
2023-02-16T13:13:16.540Z,41.52
2023-02-16T13:14:28.101Z,41.41
2023-02-16T13:15:52.382Z,41.34
2023-02-16T13:17:07.499Z,41.24
2023-02-16T13:18:22.298Z,41.08
2023-02-16T13:19:26.227Z,40.91
2023-02-16T13:20:29.380Z,40.76
2023-02-16T13:21:51.020Z,40.73
2023-02-16T13:22:55.823Z,40.62
2023-02-16T13:25:37.329Z,40.48
2023-02-16T13:26:53.099Z,40.46
2023-02-16T13:28:22.382Z,40.24
2023-02-16T13:29:47.349Z,40.17
2023-02-16T13:31:18.167Z,40.07
2023-02-16T13:32:45.389Z,40.09
2023-02-16T13:33:57.970Z,40.25
2023-02-16T13:36:52.121Z,40.35
2023-02-16T13:38:23.160Z,40.42
2023-02-16T13:41:22.488Z,40.44
2023-02-16T13:42:44.104Z,40.49
2023-02-16T13:43:55.956Z,40.51
2023-02-16T13:45:04.701Z,40.54
2023-02-16T13:46:14.407Z,40.60
2023-02-16T13:47:21.274Z,40.62
2023-02-16T13:48:38.194Z,40.63
2023-02-16T13:49:44.139Z,40.67
2023-02-16T13:50:48.721Z,40.61
2023-02-16T13:51:52.626Z,40.60
2023-02-16T13:52:57.371Z,40.52
2023-02-16T13:54:01.366Z,40.47
2023-02-16T13:55:08.213Z,40.50
2023-02-16T13:56:23.495Z,40.51
2023-02-16T13:57:51.731Z,40.45
2023-02-16T13:58:54.828Z,40.44
2023-02-16T14:00:02.215Z,40.38
2023-02-16T14:01:28.097Z,40.33
2023-02-16T14:03:00.215Z,40.38
2023-02-16T14:04:03.045Z,40.41
2023-02-16T14:05:08.448Z,40.39
2023-02-16T14:06:34.557Z,40.39
2023-02-16T14:07:38.344Z,40.36
2023-02-16T14:08:43.604Z,40.34
2023-02-16T14:09:47.683Z,40.34
2023-02-16T14:11:00.149Z,40.40
2023-02-16T14:12:13.776Z,40.43
2023-02-16T14:13:16.123Z,40.49
2023-02-16T14:14:43.893Z,40.43
2023-02-16T14:15:51.524Z,40.43
2023-02-16T14:16:54.112Z,40.39
2023-02-16T14:17:57.727Z,40.36
2023-02-16T14:19:06.387Z,40.36
2023-02-16T14:20:15.731Z,40.28
2023-02-16T14:21:31.114Z,40.33
2023-02-16T14:24:27.665Z,40.28
2023-02-16T14:25:32.359Z,40.27
2023-02-16T14:28:08.779Z,40.27
2023-02-16T14:29:20.674Z,40.26
2023-02-16T14:30:46.487Z,40.39
2023-02-16T14:31:59.531Z,40.47
2023-02-16T14:33:17.847Z,40.62
2023-02-16T14:35:46.564Z,40.94
2023-02-16T14:38:33.334Z,41.20
2023-02-16T14:39:53.298Z,41.29
2023-02-16T14:43:45.188Z,41.48
2023-02-16T14:45:22.433Z,41.58
2023-02-16T14:46:45.912Z,41.59
2023-02-16T14:49:43.939Z,41.51
2023-02-16T14:52:29.470Z,41.60
2023-02-16T14:53:51.180Z,41.65
2023-02-16T14:55:24.176Z,41.71
2023-02-16T14:56:43.207Z,41.62
2023-02-16T14:57:55.893Z,41.71
2023-02-16T14:59:23.494Z,41.71
2023-02-16T15:00:36.520Z,41.64
2023-02-16T15:01:43.620Z,41.61
2023-02-16T15:03:03.338Z,41.55
2023-02-16T15:04:07.313Z,41.59
2023-02-16T15:05:20.661Z,41.59
2023-02-16T15:06:33.054Z,41.57
2023-02-16T15:07:37.693Z,41.58
2023-02-16T15:08:44.955Z,41.56
2023-02-16T15:09:49.658Z,41.57
2023-02-16T15:10:57.660Z,41.60
2023-02-16T15:12:21.224Z,41.67
2023-02-16T15:13:27.922Z,41.82
2023-02-16T15:14:31.661Z,42.04
2023-02-16T15:15:41.106Z,42.23
2023-02-16T15:16:46.810Z,42.42
2023-02-16T15:17:49.803Z,42.52
2023-02-16T15:18:54.242Z,42.54
2023-02-16T15:20:00.149Z,42.47
2023-02-16T15:21:03.880Z,42.23
2023-02-16T15:22:21.479Z,42.08
2023-02-16T15:23:26.591Z,42.00
2023-02-16T15:24:30.693Z,41.84
2023-02-16T15:25:41.598Z,41.83
2023-02-16T15:26:48.409Z,41.84
2023-02-16T15:29:18.158Z,41.91
2023-02-16T15:30:24.760Z,42.00
2023-02-16T15:33:06.102Z,42.13
2023-02-16T15:35:39.285Z,42.16
2023-02-16T15:36:47.124Z,42.20
2023-02-16T15:39:41.332Z,42.21
2023-02-16T15:40:35.689Z,42.21
2023-02-16T15:41:41.037Z,42.24
2023-02-16T15:42:45.797Z,42.31
2023-02-16T15:43:51.017Z,42.32
2023-02-16T15:44:53.579Z,42.32
2023-02-16T15:45:57.382Z,42.25
2023-02-16T15:47:12.035Z,42.25
2023-02-16T15:49:34.280Z,42.16
2023-02-16T15:50:38.988Z,42.13
2023-02-16T15:51:42.517Z,42.07
2023-02-16T15:52:46.419Z,42.08
2023-02-16T15:53:51.585Z,41.14